Terminal Aerodrome Forecast
Issued by NWS

Home | Current Version | Previous Version | Text Only | Print | Product List | Glossary On
Versions: 1 2 3 4 5 6 7 8 9 10 11 12 13 14 15 16 17 18 19 20 21 22 23 24 25 26 27 28 29 30 31 32
458
FTUS41 KBOX 221131
TAFHYA
TAF
KHYA 221131Z 2212/2312 19006KT P6SM -RA OVC050
     FM221500 18006KT 2SM +RA BR OVC008
     FM221800 VRB03KT 1SM RA OVC008
     FM222000 VRB03KT 2SM -RA BR OVC008
     FM222200 32010G24KT 3SM BR VCSH OVC008
     FM230000 33016G32KT P6SM BKN015
     FM230200 33018G31KT P6SM SCT030
     FM230900 33012G20KT P6SM SKC=

USA.gov is the U.S. government's official web portal to all federal, state and local government web resources and services.